Time;durP1;ratioP1;P1;durP2;ratioP2;P2;SDS_P1;SDS_P2;PMS_P1;PMS_P2;Temp;Humidity;BMP_temperature;BMP_pressure;BME280_temperature;BME280_humidity;BME280_pressure;Samples;Min_cycle;Max_cycle;Signal;HPM_P1;HPM_P2
2022/05/20 00:01:51;;;;;;;28.73;25.80;;;14.50;99.90;;;;;;5051892;28;20660;-65
2022/05/20 00:04:18;;;;;;;27.63;24.73;;;14.40;99.90;;;;;;5052077;28;20203;-64
2022/05/20 00:06:45;;;;;;;28.07;25.03;;;14.40;99.90;;;;;;5052073;28;20213;-64
2022/05/20 00:09:12;;;;;;;27.23;24.37;;;14.40;99.90;;;;;;5052116;28;20238;-65
2022/05/20 00:11:39;;;;;;;28.23;25.43;;;14.30;99.90;;;;;;5051817;28;20206;-65
2022/05/20 00:14:07;;;;;;;38.10;33.50;;;14.40;99.90;;;;;;5051748;28;20299;-65
2022/05/20 00:16:36;;;;;;;42.53;35.90;;;14.40;99.90;;;;;;5051938;28;20218;-65
2022/05/20 00:19:04;;;;;;;36.50;32.50;;;14.50;99.90;;;;;;5052010;28;20207;-65
2022/05/20 00:21:31;;;;;;;38.90;34.70;;;14.50;99.90;;;;;;5051822;28;20211;-65
2022/05/20 00:23:58;;;;;;;36.63;32.77;;;14.60;99.90;;;;;;5051651;28;20220;-65
2022/05/20 00:26:26;;;;;;;34.93;31.13;;;14.60;99.90;;;;;;5051919;28;20202;-66
2022/05/20 00:28:53;;;;;;;33.33;29.80;;;14.40;99.90;;;;;;5051728;28;20207;-65
2022/05/20 00:31:22;;;;;;;32.00;28.60;;;14.40;99.90;;;;;;5051481;28;20265;-65
2022/05/20 00:33:50;;;;;;;34.20;30.50;;;14.40;99.90;;;;;;5051882;28;20207;-65
2022/05/20 00:36:18;;;;;;;28.83;25.77;;;14.40;99.90;;;;;;5051880;28;20208;-64
2022/05/20 00:38:45;;;;;;;25.40;22.70;;;14.20;99.90;;;;;;5051504;28;20199;-66
2022/05/20 00:41:12;;;;;;;22.60;20.30;;;13.90;99.90;;;;;;5051885;28;20207;-66
2022/05/20 00:43:41;;;;;;;23.57;21.37;;;13.90;99.90;;;;;;5055741;28;20196;-65
2022/05/20 00:46:11;;;;;;;26.63;24.03;;;13.90;99.90;;;;;;5055699;28;20622;-65
2022/05/20 00:48:39;;;;;;;27.63;24.83;;;14.00;99.90;;;;;;5055315;28;20257;-65
2022/05/20 00:51:10;;;;;;;29.17;26.20;;;14.00;99.90;;;;;;5055449;28;20222;-66
2022/05/20 00:53:48;;;;;;;33.73;30.23;;;14.00;99.90;;;;;;5055630;28;20176;-66
2022/05/20 00:56:18;;;;;;;35.80;31.87;;;14.10;99.90;;;;;;5055311;28;20290;-66
2022/05/20 00:58:45;;;;;;;35.73;32.03;;;14.10;99.90;;;;;;5055369;28;20187;-64
2022/05/20 01:01:13;;;;;;;26.67;20.40;;;14.10;99.90;;;;;;5055141;28;20661;-66
2022/05/20 01:03:41;;;;;;;23.97;21.70;;;14.00;99.90;;;;;;5055116;28;20767;-63
2022/05/20 01:06:11;;;;;;;26.43;23.93;;;13.80;99.90;;;;;;5055062;28;20653;-64
2022/05/20 01:08:40;;;;;;;28.80;25.80;;;13.80;99.90;;;;;;5054900;28;20565;-65
2022/05/20 01:11:07;;;;;;;32.57;29.17;;;13.80;99.90;;;;;;5054854;28;20762;-65
2022/05/20 01:13:35;;;;;;;34.10;30.53;;;13.90;99.90;;;;;;5055164;28;20547;-66
2022/05/20 01:16:07;;;;;;;27.83;23.17;;;13.90;99.90;;;;;;5054845;28;20605;-65
2022/05/20 01:18:36;;;;;;;23.53;21.23;;;13.80;99.90;;;;;;5055201;28;20257;-65
2022/05/20 01:21:04;;;;;;;26.13;23.63;;;13.80;99.90;;;;;;5054993;28;20203;-64
2022/05/20 01:23:35;;;;;;;35.57;31.83;;;13.70;99.90;;;;;;5054979;28;20242;-65
2022/05/20 01:26:02;;;;;;;40.40;36.00;;;13.80;99.90;;;;;;5055003;28;20209;-65
2022/05/20 01:28:31;;;;;;;39.67;35.47;;;13.90;99.90;;;;;;5054736;28;20563;-65
2022/05/20 01:31:01;;;;;;;41.23;36.30;;;14.00;99.90;;;;;;5054255;28;20231;-64
2022/05/20 01:33:31;;;;;;;41.93;37.13;;;13.90;99.90;;;;;;5054831;28;20253;-64
2022/05/20 01:36:00;;;;;;;41.63;36.60;;;13.90;99.90;;;;;;5054748;28;20183;-65
2022/05/20 01:38:27;;;;;;;40.23;33.33;;;13.90;99.90;;;;;;5054617;28;20191;-66
2022/05/20 01:40:59;;;;;;;41.87;36.10;;;13.90;99.90;;;;;;5054735;28;20199;-65
2022/05/20 01:43:49;;;;;;;41.63;35.67;;;13.90;99.90;;;;;;5054639;28;20176;-65
2022/05/20 01:46:26;;;;;;;37.60;32.83;;;13.90;99.90;;;;;;5054379;28;20606;-64
2022/05/20 01:49:01;;;;;;;40.30;35.80;;;13.90;99.90;;;;;;5054300;28;20186;-64
2022/05/20 01:51:33;;;;;;;38.00;33.87;;;13.90;99.90;;;;;;5054379;28;20283;-65
2022/05/20 01:54:07;;;;;;;35.67;31.87;;;13.80;99.90;;;;;;5053483;28;20179;-65
2022/05/20 01:56:39;;;;;;;38.33;32.10;;;13.80;99.90;;;;;;5054481;28;20197;-66
2022/05/20 01:59:12;;;;;;;37.70;32.83;;;13.70;99.90;;;;;;5053940;28;20184;-64
2022/05/20 02:01:51;;;;;;;42.83;35.53;;;13.60;99.90;;;;;;5054001;28;20646;-64
2022/05/20 02:04:23;;;;;;;46.00;39.13;;;13.70;99.90;;;;;;5054260;28;20188;-63
2022/05/20 02:06:55;;;;;;;49.43;39.63;;;13.70;99.90;;;;;;5054229;28;20202;-64
2022/05/20 02:09:26;;;;;;;44.03;37.93;;;13.80;99.90;;;;;;5054103;28;20176;-65
2022/05/20 02:11:56;;;;;;;36.43;32.33;;;13.80;99.90;;;;;;5054139;28;20215;-65
2022/05/20 02:14:32;;;;;;;33.70;29.87;;;13.70;99.90;;;;;;5054012;28;20182;-65
2022/05/20 02:17:07;;;;;;;36.60;32.87;;;13.60;99.90;;;;;;5053705;28;20205;-65
2022/05/20 02:19:38;;;;;;;27.07;24.17;;;13.80;99.90;;;;;;5053938;28;20187;-64
2022/05/20 02:22:11;;;;;;;25.47;23.07;;;13.70;99.90;;;;;;5053636;28;20704;-64
2022/05/20 02:24:40;;;;;;;25.13;22.73;;;13.80;99.90;;;;;;5053869;28;20184;-65
2022/05/20 02:27:13;;;;;;;37.63;32.87;;;13.70;99.90;;;;;;5053804;28;20203;-65
2022/05/20 02:29:46;;;;;;;48.87;42.30;;;13.60;99.90;;;;;;5053620;28;20210;-64
2022/05/20 02:32:19;;;;;;;53.67;45.30;;;13.70;99.90;;;;;;5053374;28;20727;-65
2022/05/20 02:34:46;;;;;;;56.03;45.30;;;13.70;99.90;;;;;;5053688;28;20188;-64
2022/05/20 02:37:23;;;;;;;51.97;42.87;;;13.80;99.90;;;;;;5053635;28;20205;-65
2022/05/20 02:39:51;;;;;;;44.67;39.83;;;13.80;99.90;;;;;;5053644;28;20184;-65
2022/05/20 02:42:19;;;;;;;52.87;43.27;;;13.70;99.90;;;;;;5053550;28;20560;-65
2022/05/20 02:44:46;;;;;;;47.20;40.90;;;13.70;99.90;;;;;;5053416;28;20521;-65
2022/05/20 02:47:14;;;;;;;46.57;39.93;;;13.70;99.90;;;;;;5053120;28;20253;-65
2022/05/20 02:49:41;;;;;;;46.27;40.83;;;13.70;99.90;;;;;;5052842;28;20693;-65
2022/05/20 02:52:09;;;;;;;45.33;38.90;;;13.60;99.90;;;;;;5053280;28;20290;-65
2022/05/20 02:54:36;;;;;;;45.07;38.77;;;13.60;99.90;;;;;;5052735;28;20688;-65
2022/05/20 02:57:04;;;;;;;46.50;41.10;;;13.60;99.90;;;;;;5053242;28;20282;-66
2022/05/20 03:05:12;;;;;;;50.53;42.67;;;13.60;99.90;;;;;;4971065;28;20428;-64
2022/05/20 03:07:39;;;;;;;49.60;42.23;;;13.60;99.90;;;;;;4971876;28;20211;-64
2022/05/20 03:10:07;;;;;;;61.03;47.43;;;13.60;99.90;;;;;;4971853;28;20587;-65
2022/05/20 03:12:35;;;;;;;58.43;48.00;;;13.60;99.90;;;;;;4971647;28;20206;-65
2022/05/20 03:15:04;;;;;;;55.67;44.40;;;13.60;99.90;;;;;;4971809;28;20221;-65
2022/05/20 03:17:31;;;;;;;56.70;46.47;;;13.60;99.90;;;;;;4971743;28;20244;-65
2022/05/20 03:19:58;;;;;;;59.20;48.70;;;13.50;99.90;;;;;;4971517;28;20202;-64
2022/05/20 03:22:25;;;;;;;58.43;46.07;;;13.60;99.90;;;;;;4971593;28;20210;-65
2022/05/20 03:24:52;;;;;;;55.80;46.50;;;13.60;99.90;;;;;;4971621;28;20202;-64
2022/05/20 03:27:18;;;;;;;63.40;50.53;;;13.60;99.90;;;;;;4971447;28;20214;-65
2022/05/20 03:29:46;;;;;;;66.27;51.13;;;13.60;99.90;;;;;;4971331;28;20217;-65
2022/05/20 03:32:14;;;;;;;57.53;48.40;;;13.60;99.90;;;;;;4971436;28;20225;-65
2022/05/20 03:34:43;;;;;;;57.03;46.43;;;13.60;99.90;;;;;;4971413;28;20206;-64
2022/05/20 03:37:10;;;;;;;55.37;47.90;;;13.60;99.90;;;;;;4971479;28;20206;-65
2022/05/20 03:39:37;;;;;;;55.23;46.70;;;13.70;99.90;;;;;;5019134;28;20215;-65
2022/05/20 03:42:05;;;;;;;56.63;45.63;;;13.70;99.90;;;;;;5052486;28;20238;-65
2022/05/20 03:44:33;;;;;;;53.77;45.57;;;13.70;99.90;;;;;;5052375;28;20199;-64
2022/05/20 03:46:59;;;;;;;50.23;43.63;;;13.80;99.90;;;;;;5052321;28;20207;-65
2022/05/20 03:49:29;;;;;;;52.73;43.20;;;13.80;99.90;;;;;;5052145;28;20253;-64
2022/05/20 03:51:58;;;;;;;53.43;44.77;;;13.80;99.90;;;;;;5052367;28;20220;-65
2022/05/20 03:54:29;;;;;;;51.13;44.07;;;13.80;99.90;;;;;;5052307;28;20554;-65
2022/05/20 03:56:56;;;;;;;52.60;44.70;;;13.90;99.90;;;;;;5052238;28;20199;-66
2022/05/20 03:59:23;;;;;;;52.57;45.20;;;13.90;99.90;;;;;;5051723;28;20214;-65
2022/05/20 04:01:58;;;;;;;54.33;46.20;;;13.90;99.90;;;;;;5052077;28;20188;-65
2022/05/20 04:04:29;;;;;;;48.63;43.40;;;14.00;99.90;;;;;;5051801;28;20187;-64
2022/05/20 04:06:56;;;;;;;52.20;46.50;;;14.00;99.90;;;;;;5052174;28;20278;-65
2022/05/20 04:09:23;;;;;;;51.30;45.57;;;14.10;99.90;;;;;;5051862;28;20249;-65
2022/05/20 04:11:54;;;;;;;53.70;47.80;;;14.10;99.90;;;;;;5051901;28;20223;-65
2022/05/20 04:14:21;;;;;;;54.30;48.17;;;14.20;99.90;;;;;;5052065;28;20184;-65
2022/05/20 04:16:54;;;;;;;53.17;47.40;;;14.20;99.90;;;;;;5053168;28;20265;-65
2022/05/20 04:19:21;;;;;;;56.93;49.03;;;14.30;99.90;;;;;;5056184;28;20192;-65
2022/05/20 04:21:50;;;;;;;54.33;47.33;;;14.30;99.90;;;;;;5056233;28;20194;-65
2022/05/20 04:24:17;;;;;;;50.13;44.90;;;14.30;99.90;;;;;;5055909;28;20687;-67
2022/05/20 04:26:44;;;;;;;48.53;43.33;;;14.30;99.90;;;;;;5055989;28;20211;-68
2022/05/20 04:29:11;;;;;;;52.70;46.47;;;14.40;99.90;;;;;;5055958;28;20198;-65
2022/05/20 04:31:43;;;;;;;51.03;44.07;;;14.40;99.90;;;;;;5055575;28;20235;-66
2022/05/20 04:34:10;;;;;;;50.60;45.10;;;14.40;99.90;;;;;;5056069;28;20191;-65
2022/05/20 04:36:37;;;;;;;52.13;46.43;;;14.40;99.90;;;;;;5055810;28;20269;-66
2022/05/20 04:39:06;;;;;;;50.57;45.10;;;14.30;99.90;;;;;;5055896;28;20203;-65
2022/05/20 04:47:05;;;;;;;50.30;44.87;;;14.40;99.90;;;;;;5055460;28;20633;-66
2022/05/20 04:49:33;;;;;;;50.53;45.20;;;14.40;99.90;;;;;;5055644;28;20195;-66
2022/05/20 04:52:01;;;;;;;53.70;47.93;;;14.40;99.90;;;;;;5055618;28;20230;-66
2022/05/20 04:57:21;;;;;;;50.73;43.63;;;14.70;99.90;;;;;;5055666;28;20198;-66
2022/05/20 04:59:49;;;;;;;47.13;42.13;;;14.80;99.90;;;;;;5055205;28;20183;-64
2022/05/20 05:02:16;;;;;;;52.37;44.53;;;14.90;99.90;;;;;;5055522;28;20200;-63
2022/05/20 05:04:43;;;;;;;44.93;40.23;;;15.00;99.90;;;;;;5055430;28;20203;-65
2022/05/20 05:07:11;;;;;;;45.83;41.10;;;15.00;99.90;;;;;;5055482;28;20617;-66
2022/05/20 05:09:41;;;;;;;44.43;39.73;;;15.20;99.90;;;;;;5055349;28;20217;-66
2022/05/20 05:12:10;;;;;;;41.07;36.63;;;15.30;99.90;;;;;;5055171;28;20227;-67
2022/05/20 05:14:38;;;;;;;37.63;33.80;;;15.50;99.90;;;;;;5055266;28;20195;-66
2022/05/20 05:17:06;;;;;;;37.33;30.20;;;15.80;99.90;;;;;;5055280;28;20215;-65
2022/05/20 05:19:35;;;;;;;33.17;29.63;;;16.40;99.90;;;;;;5055039;28;20213;-66
2022/05/20 05:22:02;;;;;;;30.80;27.47;;;17.00;99.90;;;;;;5055175;28;20286;-66
2022/05/20 05:24:29;;;;;;;28.33;25.57;;;17.50;99.90;;;;;;5055110;28;20208;-66
2022/05/20 05:26:57;;;;;;;27.73;24.83;;;17.70;99.90;;;;;;5055091;28;20278;-66
2022/05/20 05:29:25;;;;;;;27.77;24.97;;;17.80;99.90;;;;;;5053573;28;20689;-66
2022/05/20 05:31:52;;;;;;;27.07;24.30;;;17.90;99.90;;;;;;5054575;28;20255;-66
2022/05/20 05:34:19;;;;;;;29.23;26.43;;;18.10;99.90;;;;;;5054584;28;20204;-66
2022/05/20 05:36:46;;;;;;;26.00;23.50;;;17.90;99.90;;;;;;5054515;28;20191;-67
2022/05/20 05:39:13;;;;;;;25.30;22.77;;;18.10;99.90;;;;;;5054887;28;20269;-67
2022/05/20 05:41:40;;;;;;;25.50;22.92;;;18.40;99.90;;;;;;5054684;28;20196;-67
2022/05/20 05:44:08;;;;;;;26.70;23.87;;;18.90;99.90;;;;;;5054694;28;20290;-67
2022/05/20 05:46:35;;;;;;;25.23;22.88;;;19.20;99.90;;;;;;5054598;28;20195;-67
2022/05/20 05:49:03;;;;;;;25.90;23.40;;;19.20;99.90;;;;;;5054568;28;20202;-66
2022/05/20 05:51:30;;;;;;;25.50;23.02;;;19.20;99.90;;;;;;5054112;28;20677;-67
2022/05/20 05:53:57;;;;;;;23.80;21.25;;;19.20;99.90;;;;;;5054527;28;20199;-67
2022/05/20 05:56:24;;;;;;;22.75;20.58;;;19.50;99.90;;;;;;5054496;28;20270;-68
2022/05/20 05:58:51;;;;;;;24.55;21.95;;;19.90;99.90;;;;;;5054250;28;20200;-67
2022/05/20 06:01:19;;;;;;;26.13;23.52;;;20.00;99.90;;;;;;5054364;28;20659;-66
2022/05/20 06:03:46;;;;;;;23.95;21.77;;;20.30;99.90;;;;;;5054297;28;20195;-65
2022/05/20 06:06:13;;;;;;;24.02;21.67;;;20.30;99.90;;;;;;5054413;28;20203;-66
2022/05/20 06:08:40;;;;;;;23.75;21.38;;;20.70;99.90;;;;;;5054262;28;20278;-67
2022/05/20 06:11:07;;;;;;;23.60;21.10;;;20.50;99.90;;;;;;5054162;28;20212;-67
2022/05/20 06:13:34;;;;;;;21.67;19.58;;;20.80;99.90;;;;;;5054261;28;20537;-67
2022/05/20 06:16:01;;;;;;;23.30;21.13;;;21.00;99.90;;;;;;5054146;28;20207;-67
2022/05/20 06:18:29;;;;;;;23.35;20.95;;;21.20;99.90;;;;;;5054073;28;20295;-67
2022/05/20 06:20:57;;;;;;;23.33;20.92;;;21.00;99.90;;;;;;5053948;28;20191;-67
2022/05/20 06:23:24;;;;;;;23.15;20.88;;;21.30;99.90;;;;;;5053978;28;20203;-67
2022/05/20 06:25:52;;;;;;;22.67;20.58;;;21.60;99.90;;;;;;5053976;28;20206;-68
2022/05/20 06:28:20;;;;;;;22.77;20.45;;;21.70;99.90;;;;;;5053697;28;20211;-68
2022/05/20 06:30:47;;;;;;;21.95;19.75;;;21.90;99.90;;;;;;5053542;28;20246;-67
2022/05/20 06:33:14;;;;;;;20.05;18.05;;;21.90;99.90;;;;;;5053914;28;20184;-67
2022/05/20 06:41:11;;;;;;;20.42;18.52;;;22.70;99.90;;;;;;5053549;28;20551;-67
2022/05/20 06:43:39;;;;;;;20.30;18.20;;;22.70;99.90;;;;;;5053625;28;20294;-68
2022/05/20 06:46:06;;;;;;;19.23;17.25;;;22.40;99.90;;;;;;5053650;28;20199;-67
2022/05/20 06:48:45;;;;;;;22.23;17.50;;;22.60;99.90;;;;;;5053516;28;20286;-67
2022/05/20 06:51:17;;;;;;;18.58;16.77;;;22.60;99.90;;;;;;5053286;28;20222;-68
2022/05/20 06:53:44;;;;;;;19.42;17.45;;;22.90;99.90;;;;;;5053441;28;20188;-68
2022/05/20 06:56:11;;;;;;;18.20;16.42;;;22.50;99.90;;;;;;5053281;28;20231;-69
2022/05/20 06:58:39;;;;;;;18.10;16.25;;;22.90;99.90;;;;;;5053121;28;20211;-68
2022/05/20 07:01:06;;;;;;;19.00;16.42;;;23.10;99.90;;;;;;5053304;28;20187;-67
2022/05/20 07:03:33;;;;;;;26.65;16.10;;;23.20;99.90;;;;;;5053157;28;20187;-67
2022/05/20 07:06:02;;;;;;;17.42;15.80;;;22.70;99.90;;;;;;5052967;28;20269;-66
2022/05/20 07:08:30;;;;;;;15.63;14.23;;;22.80;99.90;;;;;;5052696;28;20203;-64
2022/05/20 07:10:57;;;;;;;15.60;14.10;;;23.20;99.90;;;;;;5052459;28;20776;-67
2022/05/20 07:13:24;;;;;;;15.95;14.50;;;22.90;99.90;;;;;;5052982;28;20203;-67
2022/05/20 07:15:51;;;;;;;15.43;13.80;;;23.40;99.90;;;;;;5053027;28;20191;-66
2022/05/20 07:18:18;;;;;;;15.32;13.45;;;23.70;99.90;;;;;;5052918;28;20239;-66
2022/05/20 07:20:45;;;;;;;13.98;12.68;;;23.70;99.90;;;;;;5052792;28;20306;-67
2022/05/20 07:23:12;;;;;;;14.27;12.77;;;23.40;99.90;;;;;;5052837;28;20227;-66
2022/05/20 07:25:40;;;;;;;12.80;11.60;;;24.00;99.90;;;;;;5052791;28;20209;-67
2022/05/20 07:28:07;;;;;;;11.13;10.05;;;24.10;99.90;;;;;;5052751;28;20196;-67
2022/05/20 07:30:35;;;;;;;10.60;9.40;;;23.50;99.90;;;;;;5052546;28;20274;-66
2022/05/20 07:33:03;;;;;;;11.05;9.98;;;23.60;99.90;;;;;;5052225;28;20671;-66
2022/05/20 07:35:31;;;;;;;12.50;11.00;;;23.80;99.90;;;;;;5052566;28;20207;-66
2022/05/20 07:37:58;;;;;;;13.18;11.98;;;23.50;99.90;;;;;;5052579;28;20195;-66
2022/05/20 07:40:25;;;;;;;12.85;11.35;;;23.20;99.90;;;;;;5052511;28;20215;-66
2022/05/20 07:42:54;;;;;;;13.80;12.27;;;22.70;99.90;;;;;;5052501;28;20249;-66
2022/05/20 07:45:21;;;;;;;13.50;12.10;;;22.20;99.90;;;;;;5052529;28;20599;-66
2022/05/20 07:47:49;;;;;;;14.30;12.77;;;22.10;99.90;;;;;;5052509;28;20215;-66
2022/05/20 07:50:16;;;;;;;14.20;12.80;;;22.90;99.90;;;;;;5052331;28;20272;-67
2022/05/20 07:55:34;;;;;;;15.60;13.98;;;24.40;73.80;;;;;;5052370;28;20230;-67
2022/05/20 07:58:04;;;;;;;14.50;13.10;;;24.70;32.60;;;;;;5052131;28;20291;-69
2022/05/20 08:00:32;;;;;;;16.08;14.40;;;24.50;38.20;;;;;;5052458;28;20207;-67
2022/05/20 08:03:01;;;;;;;14.13;12.65;;;24.70;19.50;;;;;;5052268;28;20202;-66
2022/05/20 08:05:29;;;;;;;17.63;14.85;;;24.70;14.90;;;;;;5052215;28;20211;-65
2022/05/20 08:08:01;;;;;;;18.05;15.45;;;24.30;12.30;;;;;;5052084;28;20290;-66
2022/05/20 08:10:30;;;;;;;18.58;16.67;;;23.70;16.20;;;;;;5051933;28;20278;-66
2022/05/20 08:12:58;;;;;;;18.20;16.33;;;23.30;16.50;;;;;;5052066;28;20227;-67
2022/05/20 08:15:27;;;;;;;18.55;16.60;;;23.00;29.50;;;;;;5052086;28;20199;-66
2022/05/20 08:17:54;;;;;;;17.10;14.80;;;22.70;35.20;;;;;;5052150;28;20302;-66
2022/05/20 08:20:25;;;;;;;19.25;15.63;;;22.60;67.20;;;;;;5052007;28;20199;-66
2022/05/20 08:22:53;;;;;;;18.30;16.33;;;22.60;78.10;;;;;;5052200;28;20550;-66
2022/05/20 08:25:21;;;;;;;18.25;16.45;;;22.40;68.50;;;;;;5051805;28;20219;-67
2022/05/20 08:27:49;;;;;;;19.60;17.50;;;22.30;68.10;;;;;;5052058;28;20204;-67
2022/05/20 08:30:20;;;;;;;20.55;18.35;;;22.10;90.10;;;;;;5052037;28;20290;-67
2022/05/20 08:32:49;;;;;;;21.63;18.90;;;22.00;99.90;;;;;;5051723;28;20297;-66
2022/05/20 08:35:16;;;;;;;20.98;18.33;;;21.60;99.90;;;;;;5051985;28;20199;-66
2022/05/20 08:37:45;;;;;;;21.83;19.52;;;22.00;99.90;;;;;;5051899;28;20231;-68
2022/05/20 08:40:17;;;;;;;20.90;18.75;;;22.00;99.90;;;;;;5051670;28;20712;-67
2022/05/20 08:42:44;;;;;;;21.52;19.25;;;21.90;99.90;;;;;;5051960;28;20176;-68
2022/05/20 08:45:14;;;;;;;21.27;19.15;;;22.10;99.90;;;;;;5051952;28;20211;-68
2022/05/20 08:47:44;;;;;;;22.95;20.52;;;22.30;99.90;;;;;;5051537;28;20203;-68
2022/05/20 08:50:18;;;;;;;21.17;19.05;;;22.20;99.90;;;;;;5051837;28;20180;-67
2022/05/20 08:52:46;;;;;;;22.83;19.13;;;22.10;99.90;;;;;;5051917;28;20200;-67
2022/05/20 08:55:13;;;;;;;23.48;20.60;;;22.30;99.90;;;;;;5051510;28;20206;-68
2022/05/20 08:57:47;;;;;;;21.75;19.52;;;22.50;99.90;;;;;;5051686;28;20214;-67
2022/05/20 09:00:15;;;;;;;22.20;20.00;;;22.70;99.90;;;;;;5051905;28;20214;-67
2022/05/20 09:02:42;;;;;;;22.38;20.17;;;23.00;99.90;;;;;;5052706;28;20188;-67
2022/05/20 09:05:18;;;;;;;21.55;19.35;;;23.30;80.60;;;;;;5055713;28;20195;-67
2022/05/20 09:07:58;;;;;;;22.08;19.75;;;24.20;46.30;;;;;;5055476;28;20183;-68
2022/05/20 09:10:34;;;;;;;23.55;20.05;;;24.60;38.20;;;;;;5055068;28;20238;-68
2022/05/20 09:13:13;;;;;;;24.23;21.70;;;24.50;5.70;;;;;;5055223;28;20238;-68
2022/05/20 09:15:43;;;;;;;22.92;20.20;;;24.10;22.20;;;;;;5055288;28;20191;-68
2022/05/20 09:18:14;;;;;;;23.45;21.15;;;24.90;8.50;;;;;;5055289;28;20192;-68
2022/05/20 09:20:47;;;;;;;25.88;21.98;;;24.60;2.90;;;;;;5055055;28;20333;-68
2022/05/20 09:23:20;;;;;;;23.23;20.73;;;25.10;1.00;;;;;;5055481;28;20284;-67
2022/05/20 09:25:52;;;;;;;23.15;20.83;;;25.20;1.00;;;;;;5055206;28;20270;-68
2022/05/20 09:28:31;;;;;;;24.35;21.95;;;25.40;1.00;;;;;;5054783;28;20203;-67
2022/05/20 09:31:07;;;;;;;23.67;21.08;;;25.10;1.00;;;;;;5054841;28;20744;-68
2022/05/20 09:33:37;;;;;;;24.80;22.30;;;25.40;1.00;;;;;;5054560;28;20234;-68
2022/05/20 09:36:06;;;;;;;23.48;21.08;;;25.60;1.00;;;;;;5054542;28;20688;-68
2022/05/20 09:38:37;;;;;;;25.50;22.65;;;25.80;1.00;;;;;;5054949;28;20207;-68
2022/05/20 09:41:15;;;;;;;23.58;21.25;;;25.30;1.00;;;;;;5054511;28;20722;-69
2022/05/20 09:43:44;;;;;;;23.92;21.63;;;25.40;1.00;;;;;;5054615;28;20172;-68
2022/05/20 09:46:30;;;;;;;23.15;20.85;;;26.40;1.00;;;;;;5054729;28;20192;-68
2022/05/20 09:49:02;;;;;;;23.95;21.48;;;26.70;1.00;;;;;;5054372;28;20184;-67
2022/05/20 09:51:37;;;;;;;24.90;22.40;;;27.30;1.00;;;;;;5054740;28;20229;-68
2022/05/20 09:54:13;;;;;;;24.95;22.50;;;28.20;1.00;;;;;;5054388;28;20183;-69
2022/05/20 09:56:42;;;;;;;28.02;25.05;;;27.90;1.00;;;;;;5054615;28;20184;-70
2022/05/20 09:59:30;;;;;;;27.42;24.80;;;27.60;1.00;;;;;;5054507;28;20191;-67
2022/05/20 10:02:03;;;;;;;28.23;24.48;;;26.80;1.00;;;;;;5054504;28;20194;-67
2022/05/20 10:04:44;;;;;;;28.65;25.55;;;26.90;1.00;;;;;;5054417;28;20180;-67
2022/05/20 10:07:17;;;;;;;28.50;25.50;;;27.10;1.00;;;;;;5054028;28;20653;-67
2022/05/20 10:09:51;;;;;;;29.27;26.23;;;27.30;1.00;;;;;;5054365;28;20275;-68
2022/05/20 10:12:27;;;;;;;28.38;25.35;;;27.30;1.00;;;;;;5054200;28;20633;-69
2022/05/20 10:15:01;;;;;;;30.65;26.83;;;27.10;1.00;;;;;;5053688;28;20190;-68
2022/05/20 10:17:40;;;;;;;28.88;25.73;;;27.20;1.00;;;;;;5054235;28;20210;-67
2022/05/20 10:20:12;;;;;;;30.92;27.85;;;26.90;1.00;;;;;;5054030;28;20176;-67
2022/05/20 10:22:50;;;;;;;27.83;24.85;;;26.60;1.00;;;;;;5054119;28;20188;-67
2022/05/20 10:25:25;;;;;;;29.98;26.92;;;27.00;1.00;;;;;;5054100;28;20183;-68
2022/05/20 10:27:58;;;;;;;29.65;26.75;;;27.60;1.00;;;;;;5053997;28;20192;-68
2022/05/20 10:33:22;;;;;;;33.10;29.60;;;27.80;1.00;;;;;;5053497;28;20316;-68
2022/05/20 10:36:01;;;;;;;27.05;24.33;;;27.60;1.00;;;;;;5053550;28;20222;-68
2022/05/20 10:38:48;;;;;;;28.33;25.42;;;27.30;1.00;;;;;;5053514;28;20310;-68
2022/05/20 10:41:28;;;;;;;29.10;26.00;;;27.00;1.00;;;;;;5053715;28;20241;-68
2022/05/20 10:50:00;;;;;;;28.15;25.08;;;28.00;1.00;;;;;;5053191;28;20291;-67
2022/05/20 10:52:46;;;;;;;28.88;25.38;;;28.10;1.00;;;;;;5053481;28;20199;-67
2022/05/20 10:55:23;;;;;;;25.83;23.10;;;28.30;1.00;;;;;;5053449;28;20192;-68
2022/05/20 10:58:29;;;;;;;26.58;23.65;;;28.70;1.00;;;;;;5053084;28;20640;-67
2022/05/20 11:00:56;;;;;;;25.60;22.95;;;28.70;1.00;;;;;;5053376;28;20200;-69
2022/05/20 11:03:46;;;;;;;27.88;23.95;;;28.80;1.00;;;;;;5053005;28;20261;-67
2022/05/20 11:06:54;;;;;;;27.83;23.95;;;29.00;1.00;;;;;;5052878;28;20655;-67
2022/05/20 11:09:33;;;;;;;32.13;28.88;;;28.20;1.00;;;;;;5053248;28;20241;-67
2022/05/20 11:12:03;;;;;;;31.80;28.05;;;28.10;1.00;;;;;;5053051;28;20195;-69
2022/05/20 11:14:47;;;;;;;26.10;23.75;;;27.80;1.00;;;;;;5053061;28;20207;-67
2022/05/20 11:17:56;;;;;;;24.20;21.83;;;27.90;1.00;;;;;;5053011;28;20194;-67
2022/05/20 11:20:43;;;;;;;22.38;20.17;;;28.50;1.00;;;;;;5052699;28;20189;-67
2022/05/20 11:23:29;;;;;;;24.83;22.00;;;28.10;1.00;;;;;;5052322;28;20191;-68
2022/05/20 11:26:32;;;;;;;23.08;20.77;;;27.90;1.00;;;;;;5051956;28;20191;-68
2022/05/20 11:29:26;;;;;;;25.35;23.02;;;28.10;1.00;;;;;;5035494;28;20214;-68
2022/05/20 11:31:58;;;;;;;28.77;25.80;;;27.60;1.00;;;;;;5052169;28;20228;-69
2022/05/20 11:34:54;;;;;;;28.23;25.73;;;27.00;1.00;;;;;;5052574;28;20191;-69
2022/05/20 11:37:42;;;;;;;29.45;26.75;;;26.90;1.00;;;;;;5051867;28;20609;-68
2022/05/20 11:40:27;;;;;;;29.23;26.27;;;26.40;6.40;;;;;;5051115;28;20197;-69
2022/05/20 11:43:16;;;;;;;30.45;27.55;;;26.20;23.60;;;;;;5052272;28;20618;-69
2022/05/20 11:45:51;;;;;;;32.30;29.23;;;26.00;48.70;;;;;;5052703;28;20192;-69
2022/05/20 11:48:42;;;;;;;33.92;31.00;;;26.10;54.30;;;;;;5051806;28;20183;-67
2022/05/20 11:51:37;;;;;;;31.73;28.88;;;26.00;72.70;;;;;;5052345;28;20191;-69
2022/05/20 11:54:11;;;;;;;32.53;29.70;;;25.70;90.80;;;;;;5052391;28;20203;-67
2022/05/20 11:56:43;;;;;;;34.25;30.88;;;25.50;99.90;;;;;;5051301;28;20544;-66
2022/05/20 11:59:16;;;;;;;33.90;30.70;;;25.30;99.90;;;;;;5052228;28;20211;-67
2022/05/20 12:01:47;;;;;;;36.13;32.83;;;25.10;99.90;;;;;;5052001;28;20282;-67
2022/05/20 12:04:16;;;;;;;37.28;33.72;;;24.90;99.90;;;;;;5052352;28;20205;-66
2022/05/20 12:06:47;;;;;;;37.72;33.92;;;24.70;99.90;;;;;;5051369;28;20661;-66
2022/05/20 12:09:33;;;;;;;38.50;34.90;;;24.60;99.90;;;;;;5052235;28;20186;-68
2022/05/20 12:12:15;;;;;;;43.08;38.88;;;24.30;99.90;;;;;;5052203;28;20180;-66
2022/05/20 12:15:02;;;;;;;43.45;39.22;;;24.00;99.90;;;;;;5051818;28;20675;-68
2022/05/20 12:17:32;;;;;;;44.60;39.95;;;23.80;99.90;;;;;;5052107;28;20222;-67
2022/05/20 12:25:42;;;;;;;51.33;46.08;;;22.90;99.90;;;;;;5051435;28;20180;-65
2022/05/20 12:28:27;;;;;;;50.55;45.25;;;22.50;99.90;;;;;;5052027;28;20199;-65
2022/05/20 12:31:07;;;;;;;50.17;45.20;;;22.30;99.90;;;;;;5051728;28;20188;-64
2022/05/20 12:36:37;;;;;;;53.75;48.03;;;22.10;99.90;;;;;;5129930;27;20774;-65
2022/05/20 12:39:18;;;;;;;60.85;53.97;;;21.70;99.90;;;;;;5130501;28;20197;-64
2022/05/20 12:41:58;;;;;;;66.50;56.97;;;21.30;99.90;;;;;;5129770;28;20641;-65
2022/05/20 12:44:35;;;;;;;57.20;49.90;;;21.00;99.90;;;;;;5130986;28;20220;-62
2022/05/20 12:47:31;;;;;;;64.03;50.55;;;20.70;99.90;;;;;;5131398;28;20695;-62
2022/05/20 12:50:05;;;;;;;58.30;50.40;;;20.60;99.90;;;;;;5130320;27;20732;-63
2022/05/20 12:52:35;;;;;;;70.30;56.30;;;20.40;99.90;;;;;;5131538;28;20187;-64
2022/05/20 12:55:16;;;;;;;59.70;47.97;;;20.60;99.90;;;;;;5130758;28;20205;-63
2022/05/20 12:57:53;;;;;;;44.97;34.35;;;20.70;99.90;;;;;;5131184;28;20184;-68
2022/05/20 13:00:29;;;;;;;31.02;27.08;;;20.40;99.90;;;;;;5131170;28;20245;-69
2022/05/20 13:03:02;;;;;;;29.45;25.58;;;20.20;99.90;;;;;;5131791;28;20587;-63
2022/05/20 13:05:33;;;;;;;25.77;22.77;;;20.40;99.90;;;;;;5130723;28;20189;-64
2022/05/20 13:08:05;;;;;;;26.67;23.83;;;20.40;99.90;;;;;;5131516;28;20199;-64
2022/05/20 13:10:34;;;;;;;25.00;22.35;;;20.60;99.90;;;;;;5131335;28;20184;-64
2022/05/20 13:13:03;;;;;;;16.10;14.57;;;20.60;99.90;;;;;;5130604;28;20727;-66
2022/05/20 13:15:31;;;;;;;13.68;12.30;;;20.40;99.90;;;;;;5130461;28;20212;-64
2022/05/20 13:18:00;;;;;;;16.15;14.48;;;20.80;99.90;;;;;;5130060;28;20696;-66
2022/05/20 13:20:29;;;;;;;15.10;13.50;;;21.30;99.90;;;;;;5129771;28;20208;-65
2022/05/20 13:23:00;;;;;;;11.63;9.95;;;21.20;99.90;;;;;;5130132;28;20204;-64
2022/05/20 13:25:29;;;;;;;11.60;9.43;;;21.00;99.90;;;;;;5129885;28;20181;-64
2022/05/20 13:27:56;;;;;;;12.15;10.43;;;21.00;99.90;;;;;;5130085;27;20583;-65
2022/05/20 13:30:29;;;;;;;13.45;10.63;;;20.70;99.90;;;;;;5128792;28;20305;-66